Time;durP1;ratioP1;P1;durP2;ratioP2;P2;SDS_P1;SDS_P2;PMS_P1;PMS_P2;Temp;Humidity;BMP_temperature;BMP_pressure;BME280_temperature;BME280_humidity;BME280_pressure;Samples;Min_cycle;Max_cycle;Signal;HPM_P1;HPM_P2
2021/01/18 00:00:54;;;;;;;20.27;7.82;;;;;;;;;;6301753;22;20365;-80
2021/01/18 00:03:20;;;;;;;24.85;7.90;;;;;;;;;;6273956;22;20888;-80
2021/01/18 00:05:46;;;;;;;23.42;8.07;;;;;;;;;;6274461;22;20385;-79
2021/01/18 00:08:12;;;;;;;20.90;7.63;;;;;;;;;;6274172;22;20824;-80
2021/01/18 00:10:37;;;;;;;29.17;8.40;;;;;;;;;;6273536;22;20403;-79
2021/01/18 00:13:04;;;;;;;26.38;7.90;;;;;;;;;;6301248;22;20791;-79
2021/01/18 00:15:29;;;;;;;23.73;7.55;;;;;;;;;;6273135;22;20411;-80
2021/01/18 00:17:56;;;;;;;19.83;7.85;;;;;;;;;;6273218;22;20362;-79
2021/01/18 00:20:22;;;;;;;21.73;7.22;;;;;;;;;;6274172;22;20685;-80
2021/01/18 00:22:49;;;;;;;23.73;7.55;;;;;;;;;;6273645;22;20351;-79
2021/01/18 00:25:25;;;;;;;30.73;8.60;;;;;;;;;;6274021;22;20342;-80
2021/01/18 00:27:51;;;;;;;23.63;7.68;;;;;;;;;;6273758;22;20401;-79
2021/01/18 00:30:22;;;;;;;35.67;11.00;;;;;;;;;;6273932;22;20666;-79
2021/01/18 00:32:48;;;;;;;33.40;9.95;;;;;;;;;;6273616;22;20374;-79
2021/01/18 00:35:15;;;;;;;24.92;8.55;;;;;;;;;;6273156;22;20346;-79
2021/01/18 00:37:44;;;;;;;27.05;8.82;;;;;;;;;;6273860;22;20930;-80
2021/01/18 00:40:11;;;;;;;28.65;8.60;;;;;;;;;;6273930;22;20451;-80
2021/01/18 00:42:38;;;;;;;26.15;8.15;;;;;;;;;;6273355;22;20404;-79
2021/01/18 00:45:05;;;;;;;25.13;7.90;;;;;;;;;;6273576;22;20351;-79
2021/01/18 00:47:30;;;;;;;28.52;7.72;;;;;;;;;;6274005;22;20355;-79
2021/01/18 00:49:56;;;;;;;22.15;7.45;;;;;;;;;;6272828;22;20338;-79
2021/01/18 00:52:22;;;;;;;22.80;6.95;;;;;;;;;;6274294;22;20642;-79
2021/01/18 00:54:48;;;;;;;22.08;6.97;;;;;;;;;;6273292;22;20347;-79
2021/01/18 00:57:14;;;;;;;22.65;7.30;;;;;;;;;;6273141;22;20378;-79
2021/01/18 00:59:41;;;;;;;21.38;6.90;;;;;;;;;;6273332;22;20363;-80
2021/01/18 01:02:07;;;;;;;23.73;8.38;;;;;;;;;;6274073;22;20424;-79
2021/01/18 01:04:33;;;;;;;21.85;6.85;;;;;;;;;;6273277;22;20390;-79
2021/01/18 01:06:58;;;;;;;25.05;7.15;;;;;;;;;;6301199;22;20358;-79
2021/01/18 01:09:24;;;;;;;21.55;7.10;;;;;;;;;;6300966;22;20377;-80
2021/01/18 01:11:50;;;;;;;24.30;7.70;;;;;;;;;;6301133;22;20357;-79
2021/01/18 01:14:16;;;;;;;25.50;7.50;;;;;;;;;;6274430;22;20350;-79
2021/01/18 01:16:43;;;;;;;17.92;7.35;;;;;;;;;;6273265;22;20388;-80
2021/01/18 01:19:09;;;;;;;21.38;7.45;;;;;;;;;;6272869;22;20364;-80
2021/01/18 01:21:35;;;;;;;26.05;7.70;;;;;;;;;;6273588;22;20346;-78
2021/01/18 01:24:01;;;;;;;22.10;6.95;;;;;;;;;;6301001;22;20406;-79
2021/01/18 01:26:27;;;;;;;21.75;7.43;;;;;;;;;;6300557;22;20779;-80
2021/01/18 01:28:53;;;;;;;21.98;6.95;;;;;;;;;;6273797;22;20372;-79
2021/01/18 01:31:19;;;;;;;18.98;7.30;;;;;;;;;;6273769;22;20384;-79
2021/01/18 01:33:45;;;;;;;20.25;7.03;;;;;;;;;;6274081;22;20693;-80
2021/01/18 01:36:11;;;;;;;20.08;7.45;;;;;;;;;;6273824;22;20370;-79
2021/01/18 01:38:37;;;;;;;19.55;6.97;;;;;;;;;;6273996;22;20354;-80
2021/01/18 01:41:04;;;;;;;19.73;7.70;;;;;;;;;;6301192;22;20354;-79
2021/01/18 01:43:30;;;;;;;25.15;8.50;;;;;;;;;;6275657;22;20453;-79
2021/01/18 01:45:56;;;;;;;38.05;10.43;;;;;;;;;;6275037;22;20409;-79
2021/01/18 01:48:22;;;;;;;22.17;8.52;;;;;;;;;;6274980;22;20350;-78
2021/01/18 01:50:48;;;;;;;20.70;8.77;;;;;;;;;;6302267;22;20342;-80
2021/01/18 01:53:23;;;;;;;21.48;8.18;;;;;;;;;;6276053;22;20794;-79
2021/01/18 01:55:50;;;;;;;23.63;8.75;;;;;;;;;;6274902;22;20866;-79
2021/01/18 01:58:16;;;;;;;24.67;8.63;;;;;;;;;;6275038;22;20479;-80
2021/01/18 02:00:42;;;;;;;19.27;8.43;;;;;;;;;;6273794;22;20358;-79
2021/01/18 02:03:35;;;;;;;27.60;9.00;;;;;;;;;;6275355;22;20378;-79
2021/01/18 02:06:01;;;;;;;21.02;9.38;;;;;;;;;;6268116;22;20374;-79
2021/01/18 02:08:27;;;;;;;23.95;8.73;;;;;;;;;;6275399;22;20339;-79
2021/01/18 02:10:52;;;;;;;21.38;8.73;;;;;;;;;;6274648;22;20404;-79
2021/01/18 02:13:19;;;;;;;22.15;8.98;;;;;;;;;;6275163;22;20339;-81
2021/01/18 02:15:49;;;;;;;21.47;9.30;;;;;;;;;;6274699;22;20437;-80
2021/01/18 02:18:24;;;;;;;23.77;9.07;;;;;;;;;;6275630;22;20438;-80
2021/01/18 02:21:09;;;;;;;23.63;9.07;;;;;;;;;;6274601;22;20839;-79
2021/01/18 02:23:38;;;;;;;23.65;10.10;;;;;;;;;;6275503;22;20456;-79
2021/01/18 02:26:25;;;;;;;17.10;8.63;;;;;;;;;;6274505;22;20364;-80
2021/01/18 02:29:10;;;;;;;20.42;9.55;;;;;;;;;;6199022;22;20431;-79
2021/01/18 02:31:51;;;;;;;21.17;8.73;;;;;;;;;;6301776;22;20831;-80
2021/01/18 02:34:27;;;;;;;19.00;8.50;;;;;;;;;;6301617;22;20879;-79
2021/01/18 02:37:02;;;;;;;20.70;9.48;;;;;;;;;;6275002;22;20385;-80
2021/01/18 02:39:47;;;;;;;18.60;8.77;;;;;;;;;;6302521;22;20409;-80
2021/01/18 02:42:16;;;;;;;21.73;8.95;;;;;;;;;;6302261;22;20369;-79
2021/01/18 02:44:44;;;;;;;24.25;9.55;;;;;;;;;;6274690;22;20382;-79
2021/01/18 02:47:10;;;;;;;26.20;9.65;;;;;;;;;;6274311;22;20359;-79
2021/01/18 02:49:36;;;;;;;23.45;9.10;;;;;;;;;;6274816;22;20824;-79
2021/01/18 02:52:10;;;;;;;16.30;8.82;;;;;;;;;;6274387;22;20351;-80
2021/01/18 02:54:36;;;;;;;20.42;9.75;;;;;;;;;;6274712;22;20452;-80
2021/01/18 02:57:04;;;;;;;21.50;9.77;;;;;;;;;;6274741;22;20358;-79
2021/01/18 02:59:30;;;;;;;21.17;9.60;;;;;;;;;;6275030;22;20370;-80
2021/01/18 03:02:12;;;;;;;20.67;9.68;;;;;;;;;;6274033;22;20358;-79
2021/01/18 03:04:57;;;;;;;26.75;10.60;;;;;;;;;;6274696;22;20871;-80
2021/01/18 03:07:23;;;;;;;26.92;10.82;;;;;;;;;;6274709;22;20366;-80
2021/01/18 03:10:09;;;;;;;27.17;11.25;;;;;;;;;;6301771;22;20448;-81
2021/01/18 03:12:39;;;;;;;27.20;11.65;;;;;;;;;;6274073;22;20694;-80
2021/01/18 03:15:11;;;;;;;24.52;10.93;;;;;;;;;;6275387;22;20384;-80
2021/01/18 03:17:39;;;;;;;26.23;10.80;;;;;;;;;;6273887;22;20437;-79
2021/01/18 03:20:05;;;;;;;22.75;10.23;;;;;;;;;;6274415;22;20353;-78
2021/01/18 03:22:31;;;;;;;23.30;9.80;;;;;;;;;;6274965;22;20396;-79
2021/01/18 03:25:01;;;;;;;29.63;11.95;;;;;;;;;;6274580;22;21010;-81
2021/01/18 03:27:27;;;;;;;21.52;11.23;;;;;;;;;;6274377;22;20381;-79
2021/01/18 03:29:53;;;;;;;25.77;11.90;;;;;;;;;;6301563;22;20360;-80
2021/01/18 03:32:19;;;;;;;29.27;13.13;;;;;;;;;;6274235;22;20343;-79
2021/01/18 03:34:45;;;;;;;29.65;12.38;;;;;;;;;;6274781;22;20351;-79
2021/01/18 03:37:12;;;;;;;25.90;12.32;;;;;;;;;;6273373;22;20824;-81
2021/01/18 03:39:37;;;;;;;27.05;12.90;;;;;;;;;;6274440;22;21010;-80
2021/01/18 03:42:03;;;;;;;29.55;12.82;;;;;;;;;;6274153;22;20411;-80
2021/01/18 03:44:29;;;;;;;27.48;13.07;;;;;;;;;;6302124;22;20840;-80
2021/01/18 03:46:55;;;;;;;30.27;13.52;;;;;;;;;;6274367;22;20424;-80
2021/01/18 03:49:21;;;;;;;26.13;13.10;;;;;;;;;;6273279;22;20347;-80
2021/01/18 03:51:47;;;;;;;30.90;13.75;;;;;;;;;;6273924;22;20350;-79
2021/01/18 03:54:13;;;;;;;28.57;13.00;;;;;;;;;;6274186;22;20429;-78
2021/01/18 03:56:40;;;;;;;28.73;13.57;;;;;;;;;;6301516;22;20763;-80
2021/01/18 03:59:06;;;;;;;22.92;12.45;;;;;;;;;;6274123;22;20367;-80
2021/01/18 04:01:36;;;;;;;29.73;13.25;;;;;;;;;;6274461;22;20347;-79
2021/01/18 04:04:02;;;;;;;27.92;13.23;;;;;;;;;;6273541;22;20387;-79
2021/01/18 04:06:33;;;;;;;27.40;13.43;;;;;;;;;;6274407;22;20366;-80
2021/01/18 04:08:59;;;;;;;27.55;13.65;;;;;;;;;;6274045;22;20343;-79
2021/01/18 04:11:25;;;;;;;32.07;14.60;;;;;;;;;;6274925;22;20639;-80
2021/01/18 04:13:51;;;;;;;29.27;15.43;;;;;;;;;;6273414;22;20650;-80
2021/01/18 04:16:16;;;;;;;34.00;15.50;;;;;;;;;;6301356;22;20423;-80
2021/01/18 04:18:42;;;;;;;31.15;15.25;;;;;;;;;;6273481;22;20373;-80
2021/01/18 04:21:08;;;;;;;28.80;14.40;;;;;;;;;;6274077;22;20357;-78
2021/01/18 04:23:34;;;;;;;31.27;15.18;;;;;;;;;;6273533;22;20382;-80
2021/01/18 04:26:00;;;;;;;32.47;17.20;;;;;;;;;;6273617;22;20357;-79
2021/01/18 04:28:26;;;;;;;40.33;16.57;;;;;;;;;;6273816;22;20378;-80
2021/01/18 04:30:52;;;;;;;30.65;15.75;;;;;;;;;;6274117;22;20347;-80
2021/01/18 04:33:18;;;;;;;34.70;16.02;;;;;;;;;;6272959;22;20415;-79
2021/01/18 04:35:44;;;;;;;33.45;16.67;;;;;;;;;;6274628;22;20431;-79
2021/01/18 04:38:10;;;;;;;31.73;15.20;;;;;;;;;;6300687;22;20327;-80
2021/01/18 04:40:36;;;;;;;32.88;15.30;;;;;;;;;;6274632;22;20365;-79
2021/01/18 04:43:02;;;;;;;31.88;16.02;;;;;;;;;;6273506;22;20404;-80
2021/01/18 04:45:29;;;;;;;35.47;16.65;;;;;;;;;;6274719;22;20354;-80
2021/01/18 04:47:56;;;;;;;32.83;16.55;;;;;;;;;;6273682;22;20347;-79
2021/01/18 04:50:23;;;;;;;32.08;15.73;;;;;;;;;;6273486;22;20347;-80
2021/01/18 04:52:50;;;;;;;29.00;15.52;;;;;;;;;;6273726;22;20357;-80
2021/01/18 04:55:27;;;;;;;30.70;16.90;;;;;;;;;;6273533;22;20822;-80
2021/01/18 04:58:12;;;;;;;30.48;16.98;;;;;;;;;;6274476;22;20424;-80
2021/01/18 05:00:49;;;;;;;34.22;16.00;;;;;;;;;;6273633;22;21051;-79
2021/01/18 05:03:19;;;;;;;31.63;16.27;;;;;;;;;;6274263;22;20367;-79
2021/01/18 05:05:45;;;;;;;31.05;16.05;;;;;;;;;;6273532;22;20660;-79
2021/01/18 05:08:31;;;;;;;27.48;14.35;;;;;;;;;;6273752;22;20437;-80
2021/01/18 05:10:57;;;;;;;33.90;17.83;;;;;;;;;;6274143;22;20342;-79
2021/01/18 05:13:23;;;;;;;28.95;15.20;;;;;;;;;;6274031;22;20354;-80
2021/01/18 05:15:49;;;;;;;35.17;16.08;;;;;;;;;;6274188;22;20351;-79
2021/01/18 05:18:15;;;;;;;28.95;14.95;;;;;;;;;;6275908;22;20729;-80
2021/01/18 05:20:41;;;;;;;33.45;16.70;;;;;;;;;;6302911;22;20331;-80
2021/01/18 05:23:07;;;;;;;30.23;15.48;;;;;;;;;;6275439;22;20367;-79
2021/01/18 05:25:34;;;;;;;32.10;16.38;;;;;;;;;;6275736;22;20381;-80
2021/01/18 05:28:09;;;;;;;31.10;17.05;;;;;;;;;;6278485;22;20354;-80
2021/01/18 05:30:36;;;;;;;33.08;16.60;;;;;;;;;;6278056;22;20421;-80
2021/01/18 05:33:12;;;;;;;31.30;15.73;;;;;;;;;;6277171;22;20850;-81
2021/01/18 05:35:40;;;;;;;30.38;16.23;;;;;;;;;;6276817;22;20339;-81
2021/01/18 05:38:10;;;;;;;37.15;17.13;;;;;;;;;;6276933;22;20665;-81
2021/01/18 05:40:38;;;;;;;43.33;17.53;;;;;;;;;;6276089;22;20362;-81
2021/01/18 05:43:04;;;;;;;35.03;15.85;;;;;;;;;;6303791;22;20848;-79
2021/01/18 05:45:30;;;;;;;33.95;15.85;;;;;;;;;;6274879;22;20354;-80
2021/01/18 05:47:57;;;;;;;33.83;16.37;;;;;;;;;;6303147;22;20327;-79
2021/01/18 05:50:24;;;;;;;36.67;16.70;;;;;;;;;;6275495;22;20380;-80
2021/01/18 05:52:50;;;;;;;31.58;14.35;;;;;;;;;;6275496;22;20725;-80
2021/01/18 05:55:17;;;;;;;40.38;17.00;;;;;;;;;;6275012;22;20818;-80
2021/01/18 05:57:51;;;;;;;36.28;16.92;;;;;;;;;;6275340;22;20390;-80
2021/01/18 06:00:37;;;;;;;31.08;15.43;;;;;;;;;;6275263;22;20366;-79
2021/01/18 06:03:07;;;;;;;36.72;17.30;;;;;;;;;;6274444;22;20394;-81
2021/01/18 06:05:34;;;;;;;33.40;16.67;;;;;;;;;;6275319;22;20343;-79
2021/01/18 06:08:10;;;;;;;37.20;16.88;;;;;;;;;;6275081;22;21021;-79
2021/01/18 06:10:36;;;;;;;29.05;15.90;;;;;;;;;;6274718;22;20361;-80
2021/01/18 06:13:02;;;;;;;39.47;18.38;;;;;;;;;;6275509;22;20338;-80
2021/01/18 06:15:28;;;;;;;34.85;16.42;;;;;;;;;;6301401;22;20331;-80
2021/01/18 06:17:56;;;;;;;39.72;18.92;;;;;;;;;;6272347;22;20670;-80
2021/01/18 06:20:28;;;;;;;30.73;17.50;;;;;;;;;;6274928;22;20378;-79
2021/01/18 06:22:59;;;;;;;39.80;20.92;;;;;;;;;;6273968;22;20684;-79
2021/01/18 06:25:26;;;;;;;38.90;19.00;;;;;;;;;;6302269;22;20750;-79
2021/01/18 06:27:52;;;;;;;40.50;19.10;;;;;;;;;;6275492;22;20384;-80
2021/01/18 06:30:26;;;;;;;36.05;18.92;;;;;;;;;;6301981;22;20341;-79
2021/01/18 06:32:53;;;;;;;35.83;19.55;;;;;;;;;;6272628;22;20357;-80
2021/01/18 06:35:24;;;;;;;35.45;20.40;;;;;;;;;;6301405;22;20774;-79
2021/01/18 06:37:57;;;;;;;34.03;20.23;;;;;;;;;;6274308;22;20354;-80
2021/01/18 06:40:28;;;;;;;40.30;20.48;;;;;;;;;;6274718;22;20343;-80
2021/01/18 06:42:54;;;;;;;38.20;19.40;;;;;;;;;;6273770;22;20726;-81
2021/01/18 06:45:21;;;;;;;54.33;22.90;;;;;;;;;;6274592;22;20415;-79
2021/01/18 06:47:47;;;;;;;48.53;21.08;;;;;;;;;;6274461;22;20346;-79
2021/01/18 06:50:13;;;;;;;41.13;20.42;;;;;;;;;;6274446;22;20359;-80
2021/01/18 06:52:45;;;;;;;42.97;19.73;;;;;;;;;;6274205;22;20400;-80
2021/01/18 06:55:12;;;;;;;41.67;21.60;;;;;;;;;;6274302;22;20364;-80
2021/01/18 06:57:43;;;;;;;39.75;20.77;;;;;;;;;;6301272;22;20461;-80
2021/01/18 07:00:12;;;;;;;44.15;21.38;;;;;;;;;;6274015;22;20418;-79
2021/01/18 07:02:38;;;;;;;46.35;23.15;;;;;;;;;;6270151;22;20353;-79
2021/01/18 07:05:13;;;;;;;36.50;20.00;;;;;;;;;;6274456;22;20617;-80
2021/01/18 07:07:39;;;;;;;42.60;20.98;;;;;;;;;;6274131;22;20833;-79
2021/01/18 07:10:08;;;;;;;40.70;21.47;;;;;;;;;;6274470;22;20343;-80
2021/01/18 07:12:34;;;;;;;40.63;21.37;;;;;;;;;;6274782;22;20483;-80
2021/01/18 07:15:01;;;;;;;44.33;24.17;;;;;;;;;;6273921;22;20813;-80
2021/01/18 07:17:30;;;;;;;43.47;23.83;;;;;;;;;;6274605;22;20343;-80
2021/01/18 07:19:58;;;;;;;46.78;23.33;;;;;;;;;;6273892;22;20379;-79
2021/01/18 07:22:27;;;;;;;43.60;25.52;;;;;;;;;;6275075;22;20353;-80
2021/01/18 07:24:58;;;;;;;59.75;27.85;;;;;;;;;;6301193;22;20442;-80
2021/01/18 07:27:24;;;;;;;52.20;28.30;;;;;;;;;;6301385;22;20794;-79
2021/01/18 07:29:50;;;;;;;55.70;29.42;;;;;;;;;;6273870;22;20375;-80
2021/01/18 07:32:17;;;;;;;55.00;27.75;;;;;;;;;;6274324;22;20378;-78
2021/01/18 07:34:43;;;;;;;51.28;27.23;;;;;;;;;;6300121;22;20327;-80
2021/01/18 07:37:09;;;;;;;54.90;27.27;;;;;;;;;;6274316;22;20346;-80
2021/01/18 07:39:38;;;;;;;51.60;26.58;;;;;;;;;;6273429;22;20358;-79
2021/01/18 07:42:05;;;;;;;51.03;26.77;;;;;;;;;;6273490;22;20362;-80
2021/01/18 07:44:40;;;;;;;61.35;31.05;;;;;;;;;;6273286;22;20412;-79
2021/01/18 07:47:11;;;;;;;48.15;27.65;;;;;;;;;;6273632;22;25073;-79
2021/01/18 07:49:41;;;;;;;54.80;28.90;;;;;;;;;;6300785;22;20351;-79
2021/01/18 07:52:27;;;;;;;53.05;28.23;;;;;;;;;;6273263;22;20390;-80
2021/01/18 07:54:54;;;;;;;56.88;29.83;;;;;;;;;;6300525;22;25080;-79
2021/01/18 07:57:27;;;;;;;53.00;29.38;;;;;;;;;;6273078;22;20425;-79
2021/01/18 08:00:11;;;;;;;50.30;28.35;;;;;;;;;;6273373;22;20431;-79
2021/01/18 08:02:37;;;;;;;60.70;30.75;;;;;;;;;;6273590;22;25135;-78
2021/01/18 08:05:24;;;;;;;57.67;30.63;;;;;;;;;;6272716;22;20378;-80
2021/01/18 08:08:09;;;;;;;52.70;29.17;;;;;;;;;;6273633;22;25059;-79
2021/01/18 08:10:53;;;;;;;52.50;29.02;;;;;;;;;;6274087;22;25086;-79
2021/01/18 08:13:28;;;;;;;53.15;29.10;;;;;;;;;;6273269;22;25101;-80
2021/01/18 08:15:54;;;;;;;50.92;27.50;;;;;;;;;;6273636;22;25099;-79
2021/01/18 08:18:27;;;;;;;58.22;30.25;;;;;;;;;;6274393;22;20351;-80
2021/01/18 08:20:53;;;;;;;56.83;29.00;;;;;;;;;;6273447;22;20809;-80
2021/01/18 08:23:39;;;;;;;48.90;27.23;;;;;;;;;;6273290;22;20378;-80
2021/01/18 08:26:06;;;;;;;60.28;30.08;;;;;;;;;;6272978;22;25169;-79
2021/01/18 08:28:35;;;;;;;51.97;27.67;;;;;;;;;;6274049;22;20346;-80
2021/01/18 08:31:01;;;;;;;54.60;28.08;;;;;;;;;;6273486;22;20455;-79
2021/01/18 08:33:27;;;;;;;53.17;26.90;;;;;;;;;;6273602;22;20358;-80
2021/01/18 08:35:55;;;;;;;53.90;27.55;;;;;;;;;;6301253;22;20327;-79
2021/01/18 08:38:25;;;;;;;49.17;26.58;;;;;;;;;;6274078;22;21014;-80
2021/01/18 08:40:52;;;;;;;44.63;25.25;;;;;;;;;;6273689;22;20444;-79
2021/01/18 08:43:19;;;;;;;50.85;26.20;;;;;;;;;;6298466;22;20440;-79
2021/01/18 08:45:47;;;;;;;41.70;24.55;;;;;;;;;;6300484;22;20320;-80
2021/01/18 08:48:14;;;;;;;54.47;24.67;;;;;;;;;;6273230;22;20382;-79
2021/01/18 08:50:47;;;;;;;46.40;23.30;;;;;;;;;;6273729;22;20445;-79
2021/01/18 08:53:32;;;;;;;50.17;24.83;;;;;;;;;;6274971;22;20415;-79
2021/01/18 08:56:02;;;;;;;44.20;24.48;;;;;;;;;;6274751;22;20513;-79
2021/01/18 08:58:31;;;;;;;38.10;22.70;;;;;;;;;;6302756;22;20478;-78
2021/01/18 09:00:58;;;;;;;45.00;24.40;;;;;;;;;;6302400;22;20658;-78
2021/01/18 09:03:25;;;;;;;49.80;23.63;;;;;;;;;;6275457;22;20378;-79
2021/01/18 09:05:58;;;;;;;48.20;24.27;;;;;;;;;;6276447;22;20812;-79
2021/01/18 09:08:25;;;;;;;47.50;23.02;;;;;;;;;;6275376;22;20372;-79
2021/01/18 09:10:55;;;;;;;44.40;22.60;;;;;;;;;;6303275;22;20330;-79
2021/01/18 09:13:22;;;;;;;41.80;22.05;;;;;;;;;;6302634;22;20368;-79
2021/01/18 09:15:48;;;;;;;47.90;23.88;;;;;;;;;;6275514;22;20375;-78
2021/01/18 09:18:14;;;;;;;44.38;21.38;;;;;;;;;;6276194;22;20445;-79
2021/01/18 09:20:41;;;;;;;44.20;21.57;;;;;;;;;;6275401;22;20386;-79
2021/01/18 09:23:08;;;;;;;41.33;21.27;;;;;;;;;;6276241;22;20441;-81
2021/01/18 09:25:34;;;;;;;43.95;21.48;;;;;;;;;;6276336;22;20350;-80
2021/01/18 09:28:08;;;;;;;39.97;20.67;;;;;;;;;;6274756;22;20356;-81
2021/01/18 09:30:34;;;;;;;43.13;20.98;;;;;;;;;;6276266;22;20341;-81
2021/01/18 09:33:01;;;;;;;43.05;21.77;;;;;;;;;;6275142;22;20354;-81
2021/01/18 09:35:28;;;;;;;44.92;23.58;;;;;;;;;;6276149;22;21030;-80
2021/01/18 09:37:54;;;;;;;39.67;22.40;;;;;;;;;;6275053;22;20993;-80
2021/01/18 09:40:20;;;;;;;43.85;22.83;;;;;;;;;;6275721;22;20366;-82
2021/01/18 09:42:46;;;;;;;46.35;22.75;;;;;;;;;;6275603;22;20453;-80
2021/01/18 09:45:13;;;;;;;41.80;21.48;;;;;;;;;;6275279;22;20747;-81
2021/01/18 09:47:39;;;;;;;38.25;20.88;;;;;;;;;;6274619;22;20353;-81
2021/01/18 09:50:08;;;;;;;40.75;20.63;;;;;;;;;;6274355;22;20358;-81
2021/01/18 09:52:38;;;;;;;37.17;20.98;;;;;;;;;;6275712;22;20357;-81
2021/01/18 09:55:08;;;;;;;37.17;18.80;;;;;;;;;;6275843;22;20415;-81
2021/01/18 09:57:37;;;;;;;37.95;18.45;;;;;;;;;;6301879;22;20350;-81
2021/01/18 10:00:03;;;;;;;40.17;19.00;;;;;;;;;;6274807;22;20372;-80
2021/01/18 10:02:30;;;;;;;38.75;18.23;;;;;;;;;;6274530;22;20345;-83
2021/01/18 10:04:57;;;;;;;37.35;18.00;;;;;;;;;;6274983;22;20384;-80
2021/01/18 10:07:26;;;;;;;37.50;17.73;;;;;;;;;;6275731;22;20385;-79
2021/01/18 10:09:55;;;;;;;31.45;17.73;;;;;;;;;;6275565;22;20400;-81
2021/01/18 10:12:27;;;;;;;37.25;17.40;;;;;;;;;;6274341;22;20349;-80
2021/01/18 10:14:54;;;;;;;35.00;18.70;;;;;;;;;;6275833;22;20399;-80
2021/01/18 10:17:30;;;;;;;36.50;17.27;;;;;;;;;;6275523;22;20660;-80
2021/01/18 10:20:07;;;;;;;32.58;17.88;;;;;;;;;;6275464;22;20869;-80
2021/01/18 10:22:37;;;;;;;36.38;16.42;;;;;;;;;;6274323;22;20757;-80
2021/01/18 10:25:08;;;;;;;39.05;17.55;;;;;;;;;;6274581;22;20386;-81
2021/01/18 10:27:36;;;;;;;31.00;17.40;;;;;;;;;;6274721;22;20347;-80
2021/01/18 10:30:07;;;;;;;36.97;16.70;;;;;;;;;;6302561;22;20394;-79
2021/01/18 10:32:40;;;;;;;30.35;15.65;;;;;;;;;;6275333;22;20354;-80
2021/01/18 10:35:19;;;;;;;30.25;15.85;;;;;;;;;;6274221;22;20385;-80
2021/01/18 10:37:46;;;;;;;31.77;15.57;;;;;;;;;;6275446;22;20551;-80
2021/01/18 10:40:13;;;;;;;36.80;15.02;;;;;;;;;;6302080;22;20334;-80
2021/01/18 10:42:49;;;;;;;35.13;16.05;;;;;;;;;;6274444;22;20446;-80
2021/01/18 10:45:16;;;;;;;33.35;15.15;;;;;;;;;;6273411;22;20433;-80
2021/01/18 10:47:52;;;;;;;31.23;13.77;;;;;;;;;;6275185;22;20354;-80
2021/01/18 10:50:22;;;;;;;27.17;13.93;;;;;;;;;;6275670;22;20341;-80
2021/01/18 10:52:48;;;;;;;34.65;15.05;;;;;;;;;;6274413;22;20357;-80
2021/01/18 10:55:17;;;;;;;29.55;14.25;;;;;;;;;;6274618;22;21073;-80
2021/01/18 10:57:45;;;;;;;31.67;14.07;;;;;;;;;;6274051;22;20358;-80
2021/01/18 11:00:15;;;;;;;31.33;15.27;;;;;;;;;;6274467;22;20358;-80
2021/01/18 11:02:42;;;;;;;26.75;14.18;;;;;;;;;;6274897;22;20367;-80
2021/01/18 11:05:10;;;;;;;27.52;13.82;;;;;;;;;;6274499;22;20457;-82
2021/01/18 11:07:36;;;;;;;33.10;13.93;;;;;;;;;;6274042;22;20403;-81
2021/01/18 11:10:03;;;;;;;32.90;13.77;;;;;;;;;;6273800;22;20350;-81
2021/01/18 11:12:41;;;;;;;29.98;14.05;;;;;;;;;;6301001;22;20386;-81
2021/01/18 11:15:08;;;;;;;32.00;14.38;;;;;;;;;;6274490;22;20397;-81
2021/01/18 11:17:34;;;;;;;31.83;14.27;;;;;;;;;;6275348;22;20365;-80
2021/01/18 11:20:00;;;;;;;26.50;12.60;;;;;;;;;;6274260;22;20433;-80
2021/01/18 11:22:26;;;;;;;33.33;13.50;;;;;;;;;;6274670;22;20346;-81
2021/01/18 11:24:52;;;;;;;27.17;12.50;;;;;;;;;;6274898;22;20378;-81
2021/01/18 11:27:18;;;;;;;30.52;13.10;;;;;;;;;;6275182;22;20965;-80
2021/01/18 11:29:44;;;;;;;30.70;11.52;;;;;;;;;;6275091;22;20943;-82
2021/01/18 11:32:10;;;;;;;25.95;11.48;;;;;;;;;;6273614;22;20343;-81
2021/01/18 11:34:36;;;;;;;27.27;11.18;;;;;;;;;;6272118;22;20393;-80
2021/01/18 11:37:06;;;;;;;29.77;11.70;;;;;;;;;;6274030;22;20347;-80
2021/01/18 11:39:32;;;;;;;28.15;11.38;;;;;;;;;;6274583;22;20353;-80
2021/01/18 11:42:04;;;;;;;25.33;10.95;;;;;;;;;;6274177;22;20346;-82
2021/01/18 11:44:30;;;;;;;23.17;11.57;;;;;;;;;;6274733;22;20378;-80
2021/01/18 11:46:57;;;;;;;27.40;10.80;;;;;;;;;;6274325;22;20379;-79
2021/01/18 11:49:23;;;;;;;28.15;11.20;;;;;;;;;;6301891;22;20455;-80
2021/01/18 11:51:50;;;;;;;24.92;10.73;;;;;;;;;;6274162;22;20434;-79
2021/01/18 11:54:16;;;;;;;26.17;10.67;;;;;;;;;;6273050;22;20341;-80
2021/01/18 11:56:42;;;;;;;24.85;10.57;;;;;;;;;;6274260;22;20376;-80
2021/01/18 11:59:08;;;;;;;21.48;10.30;;;;;;;;;;6273813;22;20367;-82
2021/01/18 12:01:40;;;;;;;24.42;11.07;;;;;;;;;;6273352;22;20396;-83
2021/01/18 12:04:06;;;;;;;30.77;11.30;;;;;;;;;;6273984;22;20649;-80
2021/01/18 12:06:32;;;;;;;29.63;11.57;;;;;;;;;;6274693;22;20365;-80
2021/01/18 12:08:58;;;;;;;24.50;10.57;;;;;;;;;;6273764;22;20386;-80
2021/01/18 12:11:24;;;;;;;24.88;10.77;;;;;;;;;;6273284;22;20350;-80
2021/01/18 12:13:50;;;;;;;24.27;11.97;;;;;;;;;;6271678;22;20346;-81
2021/01/18 12:16:26;;;;;;;23.27;11.15;;;;;;;;;;6272457;22;20354;-81
2021/01/18 12:18:52;;;;;;;27.50;10.48;;;;;;;;;;6272912;22;20374;-81
2021/01/18 12:21:18;;;;;;;25.23;11.63;;;;;;;;;;6274928;22;20346;-80
2021/01/18 12:23:44;;;;;;;30.60;11.57;;;;;;;;;;6274688;22;20370;-83
2021/01/18 12:26:14;;;;;;;25.87;11.67;;;;;;;;;;6274502;22;20497;-80
2021/01/18 12:28:40;;;;;;;25.13;11.30;;;;;;;;;;6274741;22;20354;-81
2021/01/18 12:31:06;;;;;;;25.60;10.77;;;;;;;;;;6275016;22;20374;-80
2021/01/18 12:33:32;;;;;;;24.20;11.07;;;;;;;;;;6275031;22;20350;-80
2021/01/18 12:35:58;;;;;;;29.25;11.65;;;;;;;;;;6274749;22;20358;-81
2021/01/18 12:38:24;;;;;;;31.00;11.70;;;;;;;;;;6274089;22;20358;-79
2021/01/18 12:40:50;;;;;;;22.52;10.48;;;;;;;;;;6274971;22;21005;-80
2021/01/18 12:43:17;;;;;;;22.90;10.32;;;;;;;;;;6274831;22;20347;-79
2021/01/18 12:45:43;;;;;;;26.30;11.67;;;;;;;;;;6274766;22;20398;-80
2021/01/18 12:48:09;;;;;;;21.83;10.82;;;;;;;;;;6274328;22;20354;-80
2021/01/18 12:50:36;;;;;;;26.92;10.95;;;;;;;;;;6274690;22;20346;-80
2021/01/18 12:53:02;;;;;;;24.25;11.32;;;;;;;;;;6274097;22;20385;-80
2021/01/18 12:55:29;;;;;;;25.53;11.30;;;;;;;;;;6274738;22;20338;-81
2021/01/18 12:57:55;;;;;;;23.03;11.33;;;;;;;;;;6274767;22;20916;-79
2021/01/18 13:00:21;;;;;;;25.35;12.05;;;;;;;;;;6273745;22;20412;-81
2021/01/18 13:02:47;;;;;;;30.35;11.60;;;;;;;;;;6273997;22;20412;-80
2021/01/18 13:05:14;;;;;;;24.83;10.77;;;;;;;;;;6274448;22;20417;-79
2021/01/18 13:07:47;;;;;;;23.88;11.07;;;;;;;;;;6274709;22;20659;-80
2021/01/18 13:10:13;;;;;;;23.83;10.93;;;;;;;;;;6274705;22;20390;-79
2021/01/18 13:12:39;;;;;;;24.40;10.47;;;;;;;;;;6274348;22;20350;-79
2021/01/18 13:15:05;;;;;;;20.48;9.88;;;;;;;;;;6300117;22;20410;-80
2021/01/18 13:17:31;;;;;;;23.15;9.52;;;;;;;;;;6272339;22;20770;-78
2021/01/18 13:19:57;;;;;;;23.55;9.20;;;;;;;;;;6274761;22;20379;-80
2021/01/18 13:22:23;;;;;;;22.73;9.53;;;;;;;;;;6274039;22;20391;-79
2021/01/18 13:24:49;;;;;;;25.25;10.35;;;;;;;;;;6300161;22;20463;-79
2021/01/18 13:27:15;;;;;;;22.77;9.20;;;;;;;;;;6301422;22;20754;-78
2021/01/18 13:29:41;;;;;;;23.98;9.38;;;;;;;;;;6273183;22;20831;-79
2021/01/18 13:32:07;;;;;;;25.02;10.25;;;;;;;;;;6273838;22;20786;-79
2021/01/18 13:34:33;;;;;;;21.05;9.52;;;;;;;;;;6301409;22;20845;-79
2021/01/18 13:36:59;;;;;;;23.83;9.02;;;;;;;;;;6273769;22;20339;-80
2021/01/18 13:39:25;;;;;;;21.15;9.55;;;;;;;;;;6274366;22;20343;-79
2021/01/18 13:41:51;;;;;;;25.53;9.30;;;;;;;;;;6301328;22;20377;-82
2021/01/18 13:44:17;;;;;;;26.83;10.05;;;;;;;;;;6272858;22;20386;-79
2021/01/18 13:46:43;;;;;;;21.85;9.30;;;;;;;;;;6301406;22;20327;-77
2021/01/18 13:49:09;;;;;;;25.85;9.65;;;;;;;;;;6300843;22;20422;-78
2021/01/18 13:51:35;;;;;;;26.20;8.70;;;;;;;;;;6299987;22;20384;-78
2021/01/18 13:54:01;;;;;;;21.90;8.17;;;;;;;;;;6270439;22;20354;-80
2021/01/18 13:56:28;;;;;;;26.38;8.52;;;;;;;;;;6275495;22;20335;-79
2021/01/18 13:59:00;;;;;;;24.00;8.90;;;;;;;;;;6274084;22;20343;-79
2021/01/18 14:01:27;;;;;;;24.17;8.60;;;;;;;;;;6275881;22;20435;-79
2021/01/18 14:03:54;;;;;;;24.45;7.95;;;;;;;;;;6273978;22;20382;-79
2021/01/18 14:06:36;;;;;;;26.38;8.70;;;;;;;;;;6302891;22;20837;-78
2021/01/18 14:09:07;;;;;;;22.10;8.13;;;;;;;;;;6275422;22;20347;-78
2021/01/18 14:11:40;;;;;;;23.08;8.32;;;;;;;;;;6302077;22;20334;-79
2021/01/18 14:14:07;;;;;;;21.90;7.97;;;;;;;;;;6274036;22;20381;-79
2021/01/18 14:16:34;;;;;;;22.63;8.10;;;;;;;;;;6274808;22;20755;-79
2021/01/18 14:19:00;;;;;;;24.10;8.13;;;;;;;;;;6301384;22;20342;-79
2021/01/18 14:21:26;;;;;;;22.38;7.97;;;;;;;;;;6302487;22;20327;-79
2021/01/18 14:24:02;;;;;;;20.88;6.78;;;;;;;;;;6302129;22;21016;-79
2021/01/18 14:26:28;;;;;;;24.50;7.25;;;;;;;;;;6275115;22;20357;-79
2021/01/18 14:28:54;;;;;;;20.70;6.40;;;;;;;;;;6275017;22;20986;-79